sensor_id;sensor_type;location;lat;lon;timestamp;pressure;altitude;pressure_sealevel;temperature;humidity
61506;BME280;47366;51.916;4.574;2023-06-10T00:01:40;101491.81;;;23.10;48.64
61506;BME280;47366;51.916;4.574;2023-06-10T00:04:06;101490.72;;;23.03;48.95
61506;BME280;47366;51.916;4.574;2023-06-10T00:06:32;101483.78;;;22.99;49.46
61506;BME280;47366;51.916;4.574;2023-06-10T00:09:04;101483.13;;;22.87;49.07
61506;BME280;47366;51.916;4.574;2023-06-10T00:11:31;101478.75;;;22.77;49.67
61506;BME280;47366;51.916;4.574;2023-06-10T00:13:57;101497.28;;;22.84;49.24
61506;BME280;47366;51.916;4.574;2023-06-10T00:16:23;101496.41;;;22.84;49.70
61506;BME280;47366;51.916;4.574;2023-06-10T00:18:49;101484.56;;;22.74;49.75
61506;BME280;47366;51.916;4.574;2023-06-10T00:21:16;101486.53;;;22.63;50.02
61506;BME280;47366;51.916;4.574;2023-06-10T00:23:42;101486.69;;;22.62;49.99
61506;BME280;47366;51.916;4.574;2023-06-10T00:26:07;101491.53;;;22.60;49.79
61506;BME280;47366;51.916;4.574;2023-06-10T00:28:33;101492.00;;;22.55;50.07
61506;BME280;47366;51.916;4.574;2023-06-10T00:30:58;101487.66;;;22.53;50.17
61506;BME280;47366;51.916;4.574;2023-06-10T00:33:23;101493.31;;;22.51;50.30
61506;BME280;47366;51.916;4.574;2023-06-10T00:35:49;101485.84;;;22.43;49.97
61506;BME280;47366;51.916;4.574;2023-06-10T00:38:15;101491.50;;;22.42;50.48
61506;BME280;47366;51.916;4.574;2023-06-10T00:40:41;101481.25;;;22.34;50.17
61506;BME280;47366;51.916;4.574;2023-06-10T00:43:07;101487.69;;;22.25;50.66
61506;BME280;47366;51.916;4.574;2023-06-10T00:45:33;101492.34;;;22.24;50.51
61506;BME280;47366;51.916;4.574;2023-06-10T00:48:02;101489.31;;;22.18;50.72
61506;BME280;47366;51.916;4.574;2023-06-10T00:50:27;101493.97;;;22.17;50.34
61506;BME280;47366;51.916;4.574;2023-06-10T00:52:54;101498.44;;;22.18;50.56
61506;BME280;47366;51.916;4.574;2023-06-10T00:55:20;101488.91;;;22.13;50.43
61506;BME280;47366;51.916;4.574;2023-06-10T00:57:46;101493.84;;;22.09;50.72
61506;BME280;47366;51.916;4.574;2023-06-10T01:00:14;101486.03;;;22.04;50.92
61506;BME280;47366;51.916;4.574;2023-06-10T01:02:40;101487.66;;;21.97;51.03
61506;BME280;47366;51.916;4.574;2023-06-10T01:05:07;101485.69;;;21.90;51.05
61506;BME280;47366;51.916;4.574;2023-06-10T01:07:40;101495.13;;;21.87;51.51
61506;BME280;47366;51.916;4.574;2023-06-10T01:10:14;101488.63;;;21.78;51.63
61506;BME280;47366;51.916;4.574;2023-06-10T01:12:46;101494.72;;;21.82;51.25
61506;BME280;47366;51.916;4.574;2023-06-10T01:15:16;101495.91;;;21.79;51.14
61506;BME280;47366;51.916;4.574;2023-06-10T01:17:54;101489.81;;;21.76;51.49
61506;BME280;47366;51.916;4.574;2023-06-10T01:20:20;101493.28;;;21.78;51.32
61506;BME280;47366;51.916;4.574;2023-06-10T01:22:45;101487.34;;;21.73;51.35
61506;BME280;47366;51.916;4.574;2023-06-10T01:25:13;101500.84;;;21.76;51.58
61506;BME280;47366;51.916;4.574;2023-06-10T01:27:39;101490.75;;;21.67;51.80
61506;BME280;47366;51.916;4.574;2023-06-10T01:30:14;101503.50;;;21.68;52.23
61506;BME280;47366;51.916;4.574;2023-06-10T01:32:50;101498.88;;;21.58;52.06
61506;BME280;47366;51.916;4.574;2023-06-10T01:35:16;101497.59;;;21.53;51.46
61506;BME280;47366;51.916;4.574;2023-06-10T01:37:45;101493.25;;;21.50;51.52
61506;BME280;47366;51.916;4.574;2023-06-10T01:40:12;101494.25;;;21.49;51.48
61506;BME280;47366;51.916;4.574;2023-06-10T01:42:38;101493.72;;;21.46;52.22
61506;BME280;47366;51.916;4.574;2023-06-10T01:45:04;101486.03;;;21.39;52.07
61506;BME280;47366;51.916;4.574;2023-06-10T01:47:30;101497.16;;;21.38;51.79
61506;BME280;47366;51.916;4.574;2023-06-10T01:49:55;101496.59;;;21.34;52.10
61506;BME280;47366;51.916;4.574;2023-06-10T01:52:20;101494.88;;;21.33;51.80
61506;BME280;47366;51.916;4.574;2023-06-10T01:54:46;101498.34;;;21.26;52.47
61506;BME280;47366;51.916;4.574;2023-06-10T01:57:11;101489.66;;;21.20;52.00
61506;BME280;47366;51.916;4.574;2023-06-10T01:59:37;101495.34;;;21.19;52.23
61506;BME280;47366;51.916;4.574;2023-06-10T02:02:04;101492.00;;;21.15;52.40
61506;BME280;47366;51.916;4.574;2023-06-10T02:04:29;101500.69;;;21.11;52.76
61506;BME280;47366;51.916;4.574;2023-06-10T02:06:55;101499.56;;;21.04;52.75
61506;BME280;47366;51.916;4.574;2023-06-10T02:09:21;101498.09;;;20.99;52.85
61506;BME280;47366;51.916;4.574;2023-06-10T02:11:46;101498.69;;;21.03;52.43
61506;BME280;47366;51.916;4.574;2023-06-10T02:14:11;101501.44;;;21.03;52.64
61506;BME280;47366;51.916;4.574;2023-06-10T02:16:37;101499.84;;;21.00;52.44
61506;BME280;47366;51.916;4.574;2023-06-10T02:19:02;101506.97;;;21.03;52.74
61506;BME280;47366;51.916;4.574;2023-06-10T02:21:31;101505.06;;;20.94;52.84
61506;BME280;47366;51.916;4.574;2023-06-10T02:23:57;101512.75;;;20.90;52.86
61506;BME280;47366;51.916;4.574;2023-06-10T02:26:22;101501.16;;;20.87;53.27
61506;BME280;47366;51.916;4.574;2023-06-10T02:28:48;101500.13;;;20.78;52.82
61506;BME280;47366;51.916;4.574;2023-06-10T02:31:13;101501.03;;;20.78;53.46
61506;BME280;47366;51.916;4.574;2023-06-10T02:33:38;101506.06;;;20.73;53.34
61506;BME280;47366;51.916;4.574;2023-06-10T02:36:05;101500.75;;;20.72;53.29
61506;BME280;47366;51.916;4.574;2023-06-10T02:38:31;101510.88;;;20.71;53.17
61506;BME280;47366;51.916;4.574;2023-06-10T02:40:56;101506.50;;;20.69;53.47
61506;BME280;47366;51.916;4.574;2023-06-10T02:43:21;101506.50;;;20.59;53.83
61506;BME280;47366;51.916;4.574;2023-06-10T02:45:47;101519.69;;;20.55;53.72
61506;BME280;47366;51.916;4.574;2023-06-10T02:48:12;101518.94;;;20.53;53.61
61506;BME280;47366;51.916;4.574;2023-06-10T02:50:37;101516.94;;;20.55;53.78
61506;BME280;47366;51.916;4.574;2023-06-10T02:53:05;101514.06;;;20.57;53.68
61506;BME280;47366;51.916;4.574;2023-06-10T02:55:30;101511.97;;;20.49;53.30
61506;BME280;47366;51.916;4.574;2023-06-10T02:57:56;101515.88;;;20.47;53.64
61506;BME280;47366;51.916;4.574;2023-06-10T03:00:21;101505.91;;;20.46;53.69
61506;BME280;47366;51.916;4.574;2023-06-10T03:02:46;101505.72;;;20.47;53.96
61506;BME280;47366;51.916;4.574;2023-06-10T03:05:12;101515.03;;;20.46;53.73
61506;BME280;47366;51.916;4.574;2023-06-10T03:07:38;101514.72;;;20.40;53.74
61506;BME280;47366;51.916;4.574;2023-06-10T03:10:05;101517.03;;;20.34;54.65
61506;BME280;47366;51.916;4.574;2023-06-10T03:12:30;101511.81;;;20.31;53.89
61506;BME280;47366;51.916;4.574;2023-06-10T03:14:56;101517.31;;;20.31;54.37
61506;BME280;47366;51.916;4.574;2023-06-10T03:17:21;101509.63;;;20.25;53.79
61506;BME280;47366;51.916;4.574;2023-06-10T03:19:46;101518.31;;;20.30;53.69
61506;BME280;47366;51.916;4.574;2023-06-10T03:22:13;101522.22;;;20.28;53.73
61506;BME280;47366;51.916;4.574;2023-06-10T03:24:39;101517.72;;;20.17;53.97
61506;BME280;47366;51.916;4.574;2023-06-10T03:27:11;101517.13;;;20.13;54.48
61506;BME280;47366;51.916;4.574;2023-06-10T03:29:37;101524.78;;;20.10;53.97
61506;BME280;47366;51.916;4.574;2023-06-10T03:32:03;101528.53;;;20.09;53.91
61506;BME280;47366;51.916;4.574;2023-06-10T03:34:28;101526.06;;;20.06;53.87
61506;BME280;47366;51.916;4.574;2023-06-10T03:36:55;101536.78;;;20.09;53.94
61506;BME280;47366;51.916;4.574;2023-06-10T03:39:20;101532.72;;;20.03;54.04
61506;BME280;47366;51.916;4.574;2023-06-10T03:41:46;101537.63;;;20.00;53.94
61506;BME280;47366;51.916;4.574;2023-06-10T03:44:11;101528.91;;;19.94;53.66
61506;BME280;47366;51.916;4.574;2023-06-10T03:46:36;101535.00;;;19.88;54.07
61506;BME280;47366;51.916;4.574;2023-06-10T03:49:02;101536.72;;;19.89;53.87
61506;BME280;47366;51.916;4.574;2023-06-10T03:51:28;101540.75;;;19.85;54.09
61506;BME280;47366;51.916;4.574;2023-06-10T03:53:53;101535.25;;;19.85;53.69
61506;BME280;47366;51.916;4.574;2023-06-10T03:56:18;101536.56;;;19.81;53.58
61506;BME280;47366;51.916;4.574;2023-06-10T03:58:44;101545.94;;;19.79;53.99
61506;BME280;47366;51.916;4.574;2023-06-10T04:01:09;101545.78;;;19.80;54.03
61506;BME280;47366;51.916;4.574;2023-06-10T04:03:36;101546.34;;;19.74;53.84
61506;BME280;47366;51.916;4.574;2023-06-10T04:06:01;101537.75;;;19.67;53.91
61506;BME280;47366;51.916;4.574;2023-06-10T04:08:27;101538.91;;;19.65;53.47
61506;BME280;47366;51.916;4.574;2023-06-10T04:10:53;101544.50;;;19.63;53.74
61506;BME280;47366;51.916;4.574;2023-06-10T04:13:18;101549.63;;;19.68;53.71
61506;BME280;47366;51.916;4.574;2023-06-10T04:15:44;101548.13;;;19.64;53.34
61506;BME280;47366;51.916;4.574;2023-06-10T04:18:10;101547.25;;;19.63;53.82
61506;BME280;47366;51.916;4.574;2023-06-10T04:20:35;101553.91;;;19.61;53.54
61506;BME280;47366;51.916;4.574;2023-06-10T04:23:01;101543.47;;;19.55;53.92
61506;BME280;47366;51.916;4.574;2023-06-10T04:25:26;101552.44;;;19.57;54.02
61506;BME280;47366;51.916;4.574;2023-06-10T04:27:52;101553.38;;;19.46;53.71
61506;BME280;47366;51.916;4.574;2023-06-10T04:30:18;101549.91;;;19.44;54.07
61506;BME280;47366;51.916;4.574;2023-06-10T04:32:44;101559.47;;;19.49;53.73
61506;BME280;47366;51.916;4.574;2023-06-10T04:35:11;101544.41;;;19.44;53.75
61506;BME280;47366;51.916;4.574;2023-06-10T04:37:37;101555.00;;;19.48;53.75
61506;BME280;47366;51.916;4.574;2023-06-10T04:40:02;101562.09;;;19.51;53.98
61506;BME280;47366;51.916;4.574;2023-06-10T04:42:28;101557.00;;;19.46;53.71
61506;BME280;47366;51.916;4.574;2023-06-10T04:44:53;101563.06;;;19.40;53.86
61506;BME280;47366;51.916;4.574;2023-06-10T04:47:19;101564.78;;;19.41;54.16
61506;BME280;47366;51.916;4.574;2023-06-10T04:49:44;101572.91;;;19.43;54.12
61506;BME280;47366;51.916;4.574;2023-06-10T04:52:09;101571.88;;;19.44;54.66
61506;BME280;47366;51.916;4.574;2023-06-10T04:54:35;101561.91;;;19.43;54.15
61506;BME280;47366;51.916;4.574;2023-06-10T04:57:00;101566.78;;;19.39;54.12
61506;BME280;47366;51.916;4.574;2023-06-10T04:59:25;101577.50;;;19.42;54.15
61506;BME280;47366;51.916;4.574;2023-06-10T05:01:51;101571.88;;;19.44;54.29
61506;BME280;47366;51.916;4.574;2023-06-10T05:04:16;101566.28;;;19.45;53.71
61506;BME280;47366;51.916;4.574;2023-06-10T05:06:42;101565.72;;;19.51;54.19
61506;BME280;47366;51.916;4.574;2023-06-10T05:09:07;101564.97;;;19.49;53.74
61506;BME280;47366;51.916;4.574;2023-06-10T05:11:32;101573.72;;;19.55;54.23
61506;BME280;47366;51.916;4.574;2023-06-10T05:13:58;101573.44;;;19.58;54.51
61506;BME280;47366;51.916;4.574;2023-06-10T05:16:23;101581.84;;;19.66;53.99
61506;BME280;47366;51.916;4.574;2023-06-10T05:18:48;101576.84;;;19.71;54.20
61506;BME280;47366;51.916;4.574;2023-06-10T05:21:16;101572.50;;;19.68;54.83
61506;BME280;47366;51.916;4.574;2023-06-10T05:23:41;101586.00;;;19.71;54.22
61506;BME280;47366;51.916;4.574;2023-06-10T05:26:06;101575.72;;;19.73;54.03
61506;BME280;47366;51.916;4.574;2023-06-10T05:28:32;101579.53;;;19.82;53.94
61506;BME280;47366;51.916;4.574;2023-06-10T05:30:57;101571.56;;;19.79;54.36
61506;BME280;47366;51.916;4.574;2023-06-10T05:33:22;101573.03;;;19.83;54.37
61506;BME280;47366;51.916;4.574;2023-06-10T05:35:48;101578.56;;;19.93;55.38
61506;BME280;47366;51.916;4.574;2023-06-10T05:38:13;101575.00;;;20.02;53.92
61506;BME280;47366;51.916;4.574;2023-06-10T05:40:38;101574.72;;;20.05;54.32
61506;BME280;47366;51.916;4.574;2023-06-10T05:43:03;101579.66;;;20.11;54.44
61506;BME280;47366;51.916;4.574;2023-06-10T05:45:29;101573.59;;;20.18;53.96
61506;BME280;47366;51.916;4.574;2023-06-10T05:47:54;101568.69;;;20.21;53.91
61506;BME280;47366;51.916;4.574;2023-06-10T05:50:20;101580.88;;;20.28;54.00
61506;BME280;47366;51.916;4.574;2023-06-10T05:52:46;101573.94;;;20.34;53.97
61506;BME280;47366;51.916;4.574;2023-06-10T05:55:11;101578.75;;;20.42;54.15
61506;BME280;47366;51.916;4.574;2023-06-10T05:57:36;101571.94;;;20.46;54.08
61506;BME280;47366;51.916;4.574;2023-06-10T06:00:03;101587.38;;;20.58;53.48
61506;BME280;47366;51.916;4.574;2023-06-10T06:02:28;101576.66;;;20.65;54.00
61506;BME280;47366;51.916;4.574;2023-06-10T06:04:54;101572.16;;;20.73;53.30
61506;BME280;47366;51.916;4.574;2023-06-10T06:07:19;101587.09;;;20.81;53.70
61506;BME280;47366;51.916;4.574;2023-06-10T06:09:46;101565.22;;;20.89;53.39
61506;BME280;47366;51.916;4.574;2023-06-10T06:12:12;101588.00;;;21.00;53.45
61506;BME280;47366;51.916;4.574;2023-06-10T06:14:38;101579.00;;;21.08;53.70
61506;BME280;47366;51.916;4.574;2023-06-10T06:17:07;101566.53;;;21.14;53.47
61506;BME280;47366;51.916;4.574;2023-06-10T06:19:32;101570.59;;;21.19;53.17
61506;BME280;47366;51.916;4.574;2023-06-10T06:21:58;101588.00;;;21.30;53.23
61506;BME280;47366;51.916;4.574;2023-06-10T06:24:23;101584.25;;;21.40;52.86
61506;BME280;47366;51.916;4.574;2023-06-10T06:26:48;101574.81;;;21.53;52.63
61506;BME280;47366;51.916;4.574;2023-06-10T06:29:14;101578.97;;;21.57;52.68
61506;BME280;47366;51.916;4.574;2023-06-10T06:31:39;101573.19;;;21.60;52.20
61506;BME280;47366;51.916;4.574;2023-06-10T06:34:04;101577.19;;;21.75;52.25
61506;BME280;47366;51.916;4.574;2023-06-10T06:36:30;101583.41;;;21.87;52.06
61506;BME280;47366;51.916;4.574;2023-06-10T06:38:55;101588.47;;;21.92;51.89
61506;BME280;47366;51.916;4.574;2023-06-10T06:41:20;101586.97;;;21.97;51.87
61506;BME280;47366;51.916;4.574;2023-06-10T06:43:47;101578.56;;;21.99;51.45
61506;BME280;47366;51.916;4.574;2023-06-10T06:46:12;101583.94;;;22.00;51.85
61506;BME280;47366;51.916;4.574;2023-06-10T06:48:37;101582.28;;;22.17;51.41
61506;BME280;47366;51.916;4.574;2023-06-10T06:51:03;101586.03;;;22.26;51.08
61506;BME280;47366;51.916;4.574;2023-06-10T06:53:28;101584.56;;;22.32;51.40
61506;BME280;47366;51.916;4.574;2023-06-10T06:55:53;101591.47;;;22.45;50.99
61506;BME280;47366;51.916;4.574;2023-06-10T06:58:18;101587.06;;;22.53;50.18
61506;BME280;47366;51.916;4.574;2023-06-10T07:00:44;101587.16;;;22.61;50.37
61506;BME280;47366;51.916;4.574;2023-06-10T07:03:09;101604.78;;;22.78;50.50
61506;BME280;47366;51.916;4.574;2023-06-10T07:05:34;101595.09;;;22.92;50.24
61506;BME280;47366;51.916;4.574;2023-06-10T07:08:00;101605.09;;;22.93;50.04
61506;BME280;47366;51.916;4.574;2023-06-10T07:10:26;101590.97;;;22.96;49.66
61506;BME280;47366;51.916;4.574;2023-06-10T07:12:52;101597.09;;;22.99;49.98
61506;BME280;47366;51.916;4.574;2023-06-10T07:15:18;101589.81;;;23.16;49.64
61506;BME280;47366;51.916;4.574;2023-06-10T07:17:44;101592.09;;;23.21;49.43
61506;BME280;47366;51.916;4.574;2023-06-10T07:20:10;101600.69;;;23.36;49.54
61506;BME280;47366;51.916;4.574;2023-06-10T07:22:35;101595.25;;;23.44;49.25
61506;BME280;47366;51.916;4.574;2023-06-10T07:25:01;101601.91;;;23.59;49.00
61506;BME280;47366;51.916;4.574;2023-06-10T07:27:26;101597.00;;;23.71;48.68
61506;BME280;47366;51.916;4.574;2023-06-10T07:29:52;101596.28;;;23.87;48.51
61506;BME280;47366;51.916;4.574;2023-06-10T07:32:19;101597.22;;;23.95;48.46
61506;BME280;47366;51.916;4.574;2023-06-10T07:34:47;101598.09;;;24.04;47.84
61506;BME280;47366;51.916;4.574;2023-06-10T07:37:12;101605.56;;;24.12;47.65
61506;BME280;47366;51.916;4.574;2023-06-10T07:39:38;101608.75;;;24.17;47.74
61506;BME280;47366;51.916;4.574;2023-06-10T07:42:03;101600.19;;;24.36;47.88
61506;BME280;47366;51.916;4.574;2023-06-10T07:44:29;101609.59;;;24.52;47.44
61506;BME280;47366;51.916;4.574;2023-06-10T07:46:54;101602.53;;;24.57;47.22
61506;BME280;47366;51.916;4.574;2023-06-10T07:49:19;101604.63;;;24.64;46.95
61506;BME280;47366;51.916;4.574;2023-06-10T07:51:45;101605.03;;;24.77;47.16
61506;BME280;47366;51.916;4.574;2023-06-10T07:54:10;101602.81;;;24.89;46.35
61506;BME280;47366;51.916;4.574;2023-06-10T07:56:37;101606.44;;;24.89;46.24
61506;BME280;47366;51.916;4.574;2023-06-10T07:59:02;101598.81;;;24.91;45.76
61506;BME280;47366;51.916;4.574;2023-06-10T08:01:28;101595.19;;;24.99;45.72
61506;BME280;47366;51.916;4.574;2023-06-10T08:03:55;101590.53;;;25.08;46.08
61506;BME280;47366;51.916;4.574;2023-06-10T08:06:20;101601.84;;;25.23;45.46
61506;BME280;47366;51.916;4.574;2023-06-10T08:08:45;101596.97;;;25.33;45.32
61506;BME280;47366;51.916;4.574;2023-06-10T08:11:11;101602.88;;;25.46;44.98
61506;BME280;47366;51.916;4.574;2023-06-10T08:13:37;101609.97;;;25.57;45.32
61506;BME280;47366;51.916;4.574;2023-06-10T08:16:03;101602.88;;;25.62;44.41
61506;BME280;47366;51.916;4.574;2023-06-10T08:18:29;101606.50;;;25.71;44.87
61506;BME280;47366;51.916;4.574;2023-06-10T08:20:54;101608.91;;;25.91;44.44
61506;BME280;47366;51.916;4.574;2023-06-10T08:23:20;101596.22;;;26.04;43.84
61506;BME280;47366;51.916;4.574;2023-06-10T08:25:45;101595.16;;;26.14;43.39
61506;BME280;47366;51.916;4.574;2023-06-10T08:28:10;101600.50;;;26.23;43.06
61506;BME280;47366;51.916;4.574;2023-06-10T08:30:36;101594.25;;;26.30;44.01
61506;BME280;47366;51.916;4.574;2023-06-10T08:33:01;101599.84;;;26.53;43.43
61506;BME280;47366;51.916;4.574;2023-06-10T08:35:27;101598.63;;;26.63;43.57
61506;BME280;47366;51.916;4.574;2023-06-10T08:37:52;101603.53;;;26.84;42.91
61506;BME280;47366;51.916;4.574;2023-06-10T08:40:17;101595.81;;;26.95;43.24
61506;BME280;47366;51.916;4.574;2023-06-10T08:42:45;101607.69;;;27.11;42.94
61506;BME280;47366;51.916;4.574;2023-06-10T08:45:17;101603.19;;;27.10;42.48
61506;BME280;47366;51.916;4.574;2023-06-10T08:47:46;101609.53;;;27.27;41.76
61506;BME280;47366;51.916;4.574;2023-06-10T08:50:16;101600.81;;;27.30;42.29
61506;BME280;47366;51.916;4.574;2023-06-10T08:52:43;101611.50;;;27.42;41.88
61506;BME280;47366;51.916;4.574;2023-06-10T08:55:23;101595.41;;;27.52;41.43
61506;BME280;47366;51.916;4.574;2023-06-10T08:57:52;101602.44;;;27.63;42.36
61506;BME280;47366;51.916;4.574;2023-06-10T09:00:18;101602.91;;;27.66;39.99
61506;BME280;47366;51.916;4.574;2023-06-10T09:02:44;101603.56;;;27.53;41.61
61506;BME280;47366;51.916;4.574;2023-06-10T09:05:10;101613.19;;;27.66;41.73
61506;BME280;47366;51.916;4.574;2023-06-10T09:07:36;101607.81;;;27.79;41.14
61506;BME280;47366;51.916;4.574;2023-06-10T09:10:02;101603.19;;;27.94;40.22
61506;BME280;47366;51.916;4.574;2023-06-10T09:12:34;101602.72;;;28.06;39.71
61506;BME280;47366;51.916;4.574;2023-06-10T09:15:01;101604.56;;;28.13;40.00
61506;BME280;47366;51.916;4.574;2023-06-10T09:17:27;101605.41;;;28.14;39.91
61506;BME280;47366;51.916;4.574;2023-06-10T09:19:52;101607.22;;;28.22;40.09
61506;BME280;47366;51.916;4.574;2023-06-10T09:22:21;101604.81;;;28.33;39.33
61506;BME280;47366;51.916;4.574;2023-06-10T09:24:46;101614.63;;;28.44;39.52
61506;BME280;47366;51.916;4.574;2023-06-10T09:27:12;101608.56;;;28.41;38.85
61506;BME280;47366;51.916;4.574;2023-06-10T09:32:13;101598.44;;;28.84;39.15
61506;BME280;47366;51.916;4.574;2023-06-10T09:34:39;101603.25;;;29.12;38.87
61506;BME280;47366;51.916;4.574;2023-06-10T09:37:04;101607.31;;;29.09;38.37
61506;BME280;47366;51.916;4.574;2023-06-10T09:39:30;101609.78;;;29.19;38.19
61506;BME280;47366;51.916;4.574;2023-06-10T09:41:55;101608.19;;;29.10;37.62
61506;BME280;47366;51.916;4.574;2023-06-10T09:44:21;101606.06;;;29.12;37.88
61506;BME280;47366;51.916;4.574;2023-06-10T09:46:48;101599.47;;;29.19;37.88
61506;BME280;47366;51.916;4.574;2023-06-10T09:49:18;101593.50;;;29.23;37.50
61506;BME280;47366;51.916;4.574;2023-06-10T09:51:54;101609.03;;;29.32;36.81
61506;BME280;47366;51.916;4.574;2023-06-10T09:54:20;101605.78;;;29.28;37.28
61506;BME280;47366;51.916;4.574;2023-06-10T09:56:47;101607.31;;;29.52;36.63
61506;BME280;47366;51.916;4.574;2023-06-10T09:59:13;101594.31;;;29.66;37.27
61506;BME280;47366;51.916;4.574;2023-06-10T10:01:38;101590.72;;;29.72;36.74
61506;BME280;47366;51.916;4.574;2023-06-10T10:04:04;101593.38;;;29.80;36.46
61506;BME280;47366;51.916;4.574;2023-06-10T10:06:30;101595.03;;;29.96;36.61
61506;BME280;47366;51.916;4.574;2023-06-10T10:08:55;101595.03;;;30.03;36.66
61506;BME280;47366;51.916;4.574;2023-06-10T10:11:22;101589.53;;;30.16;36.58
61506;BME280;47366;51.916;4.574;2023-06-10T10:13:50;101589.34;;;30.18;36.00
61506;BME280;47366;51.916;4.574;2023-06-10T10:16:30;101585.72;;;30.24;35.97
61506;BME280;47366;51.916;4.574;2023-06-10T10:19:11;101589.44;;;30.31;35.40
61506;BME280;47366;51.916;4.574;2023-06-10T10:21:41;101583.69;;;30.39;35.24
61506;BME280;47366;51.916;4.574;2023-06-10T10:24:20;101585.47;;;30.54;35.09
61506;BME280;47366;51.916;4.574;2023-06-10T10:26:48;101584.06;;;30.36;35.60
61506;BME280;47366;51.916;4.574;2023-06-10T10:31:44;101584.16;;;30.50;35.73
61506;BME280;47366;51.916;4.574;2023-06-10T10:34:16;101585.47;;;30.54;35.17
61506;BME280;47366;51.916;4.574;2023-06-10T10:36:45;101579.88;;;30.54;35.25
61506;BME280;47366;51.916;4.574;2023-06-10T10:39:11;101586.34;;;30.67;35.65
61506;BME280;47366;51.916;4.574;2023-06-10T10:41:38;101583.81;;;30.73;35.18
61506;BME280;47366;51.916;4.574;2023-06-10T10:44:06;101571.94;;;30.64;34.33
61506;BME280;47366;51.916;4.574;2023-06-10T10:46:45;101571.31;;;30.68;33.38
61506;BME280;47366;51.916;4.574;2023-06-10T10:49:14;101574.44;;;30.87;34.22
61506;BME280;47366;51.916;4.574;2023-06-10T10:51:54;101579.59;;;30.90;33.07
61506;BME280;47366;51.916;4.574;2023-06-10T10:54:34;101581.31;;;30.91;31.97
61506;BME280;47366;51.916;4.574;2023-06-10T10:59:46;101576.41;;;31.13;33.10
61506;BME280;47366;51.916;4.574;2023-06-10T11:02:18;101573.81;;;31.25;33.13
61506;BME280;47366;51.916;4.574;2023-06-10T11:04:48;101566.50;;;31.17;32.27
61506;BME280;47366;51.916;4.574;2023-06-10T11:07:13;101560.25;;;31.15;32.54
61506;BME280;47366;51.916;4.574;2023-06-10T11:09:58;101572.53;;;31.21;32.52
61506;BME280;47366;51.916;4.574;2023-06-10T11:12:24;101557.25;;;31.23;32.79
61506;BME280;47366;51.916;4.574;2023-06-10T11:14:56;101566.09;;;31.20;31.33
61506;BME280;47366;51.916;4.574;2023-06-10T11:17:21;101558.56;;;31.27;32.92
61506;BME280;47366;51.916;4.574;2023-06-10T11:19:47;101553.38;;;31.31;32.17
61506;BME280;47366;51.916;4.574;2023-06-10T11:22:18;101556.44;;;31.49;32.82
61506;BME280;47366;51.916;4.574;2023-06-10T11:24:49;101556.44;;;31.56;31.34
61506;BME280;47366;51.916;4.574;2023-06-10T11:27:22;101554.03;;;31.53;31.40
61506;BME280;47366;51.916;4.574;2023-06-10T11:32:34;101555.13;;;31.52;31.60
61506;BME280;47366;51.916;4.574;2023-06-10T11:35:02;101543.91;;;31.65;31.99
61506;BME280;47366;51.916;4.574;2023-06-10T11:37:28;101555.31;;;31.77;30.91
61506;BME280;47366;51.916;4.574;2023-06-10T11:39:56;101552.97;;;31.61;31.26
61506;BME280;47366;51.916;4.574;2023-06-10T11:42:22;101537.44;;;31.71;30.96
61506;BME280;47366;51.916;4.574;2023-06-10T11:44:49;101536.38;;;31.59;30.38
61506;BME280;47366;51.916;4.574;2023-06-10T11:47:15;101546.69;;;31.72;31.12
61506;BME280;47366;51.916;4.574;2023-06-10T11:49:40;101534.84;;;31.77;28.65
61506;BME280;47366;51.916;4.574;2023-06-10T11:52:06;101534.81;;;31.90;29.42
61506;BME280;47366;51.916;4.574;2023-06-10T11:54:31;101531.59;;;31.80;29.63
61506;BME280;47366;51.916;4.574;2023-06-10T11:56:59;101529.69;;;31.80;29.74
61506;BME280;47366;51.916;4.574;2023-06-10T11:59:29;101530.47;;;31.94;29.99
61506;BME280;47366;51.916;4.574;2023-06-10T12:01:54;101536.97;;;32.01;29.89
61506;BME280;47366;51.916;4.574;2023-06-10T12:04:20;101532.63;;;32.12;29.75
61506;BME280;47366;51.916;4.574;2023-06-10T12:06:48;101535.59;;;32.24;29.34
61506;BME280;47366;51.916;4.574;2023-06-10T12:09:27;101533.06;;;32.15;27.74
61506;BME280;47366;51.916;4.574;2023-06-10T12:12:02;101526.16;;;32.18;28.14
61506;BME280;47366;51.916;4.574;2023-06-10T12:14:56;101525.69;;;32.28;27.76
61506;BME280;47366;51.916;4.574;2023-06-10T12:17:23;101528.03;;;32.31;27.99
61506;BME280;47366;51.916;4.574;2023-06-10T12:19:50;101521.78;;;32.29;29.27
61506;BME280;47366;51.916;4.574;2023-06-10T12:22:16;101524.78;;;32.34;28.63
61506;BME280;47366;51.916;4.574;2023-06-10T12:24:45;101516.81;;;32.31;28.24
61506;BME280;47366;51.916;4.574;2023-06-10T12:27:21;101523.25;;;32.38;28.09
61506;BME280;47366;51.916;4.574;2023-06-10T12:29:51;101524.38;;;32.30;26.77
61506;BME280;47366;51.916;4.574;2023-06-10T12:32:20;101518.75;;;32.30;28.80
61506;BME280;47366;51.916;4.574;2023-06-10T12:34:48;101517.50;;;32.20;28.19
61506;BME280;47366;51.916;4.574;2023-06-10T12:37:13;101508.06;;;31.94;28.72
61506;BME280;47366;51.916;4.574;2023-06-10T12:39:39;101518.19;;;32.08;28.50
61506;BME280;47366;51.916;4.574;2023-06-10T12:42:05;101529.63;;;32.07;28.37
61506;BME280;47366;51.916;4.574;2023-06-10T12:44:35;101530.47;;;32.07;27.94
61506;BME280;47366;51.916;4.574;2023-06-10T12:47:13;101524.25;;;31.99;27.54
61506;BME280;47366;51.916;4.574;2023-06-10T12:49:38;101516.09;;;31.97;28.53
61506;BME280;47366;51.916;4.574;2023-06-10T12:52:05;101517.16;;;31.96;28.22
61506;BME280;47366;51.916;4.574;2023-06-10T12:54:30;101517.97;;;32.10;27.59
61506;BME280;47366;51.916;4.574;2023-06-10T12:56:56;101518.88;;;31.90;26.89
61506;BME280;47366;51.916;4.574;2023-06-10T12:59:21;101520.63;;;31.85;27.07